Time;durP1;ratioP1;P1;durP2;ratioP2;P2;SDS_P1;SDS_P2;PMS_P1;PMS_P2;Temp;Humidity;BMP_temperature;BMP_pressure;BME280_temperature;BME280_humidity;BME280_pressure;Samples;Min_cycle;Max_cycle;Signal;HPM_P1;HPM_P2
2022/09/10 00:01:05;;;;;;;;;;;;;;;;;;5011785;28;7267;-83
2022/09/10 00:03:30;;;;;;;;;;;;;;;;;;5012363;28;7158;-83
2022/09/10 00:05:56;;;;;;;;;;;;;;;;;;5012676;28;6811;-83
2022/09/10 00:08:21;;;;;;;;;;;;;;;;;;5012343;28;8402;-83
2022/09/10 00:10:49;;;;;;;;;;;;;;;;;;5012209;28;7251;-81
2022/09/10 00:13:16;;;;;;;;;;;;;;;;;;5011931;28;7328;-85
2022/09/10 00:15:44;;;;;;;;;;;;;;;;;;5011552;28;8941;-83
2022/09/10 00:18:10;;;;;;;;;;;;;;;;;;5012143;28;7173;-83
2022/09/10 00:20:53;;;;;;;;;;;;;;;;;;5012616;28;8304;-82
2022/09/10 00:23:24;;;;;;;;;;;;;;;;;;5011624;28;7152;-83
2022/09/10 00:25:52;;;;;;;;;;;;;;;;;;5011756;28;8606;-82
2022/09/10 00:28:19;;;;;;;;;;;;;;;;;;5011804;28;8871;-83
2022/09/10 00:30:46;;;;;;;;;;;;;;;;;;5011638;28;8916;-83
2022/09/10 00:33:16;;;;;;;;;;;;;;;;;;5011724;28;7370;-83
2022/09/10 00:35:44;;;;;;;;;;;;;;;;;;5011258;28;8436;-84
2022/09/10 00:38:10;;;;;;;;;;;;;;;;;;5012253;28;7056;-83
2022/09/10 00:40:37;;;;;;;;;;;;;;;;;;5012018;28;7068;-84
2022/09/10 00:43:10;;;;;;;;;;;;;;;;;;5011479;28;8413;-83
2022/09/10 00:45:36;;;;;;;;;;;;;;;;;;5011825;28;8672;-83
2022/09/10 00:48:04;;;;;;;;;;;;;;;;;;5011680;28;7068;-83
2022/09/10 00:50:35;;;;;;;;;;;;;;;;;;5011391;28;7191;-83
2022/09/10 00:53:05;;;;;;;;;;;;;;;;;;5011248;28;7328;-84
2022/09/10 00:55:33;;;;;;;;;;;;;;;;;;5011111;28;7205;-84
2022/09/10 00:58:02;;;;;;;;;;;;;;;;;;5011244;28;7263;-83
2022/09/10 01:00:29;;;;;;;;;;;;;;;;;;5010963;28;8567;-84
2022/09/10 01:02:55;;;;;;;;;;;;;;;;;;5011373;28;8719;-84
2022/09/10 01:05:22;;;;;;;;;;;;;;;;;;5011040;28;7237;-84
2022/09/10 01:07:47;;;;;;;;;;;;;;;;;;5010782;28;7262;-79
2022/09/10 01:10:23;;;;;;;;;;;;;;;;;;5011276;28;8323;-84
2022/09/10 01:13:01;;;;;;;;;;;;;;;;;;5010986;28;8453;-84
2022/09/10 01:15:39;;;;;;;;;;;;;;;;;;5011217;28;7507;-84
2022/09/10 01:18:26;;;;;;;;;;;;;;;;;;4994733;28;7200;-84
2022/09/10 01:21:07;;;;;;;;;;;;;;;;;;4993703;28;7291;-84
2022/09/10 01:23:32;;;;;;;;;;;;;;;;;;4994106;28;7246;-83
2022/09/10 01:25:57;;;;;;;;;;;;;;;;;;4994645;28;8420;-83
2022/09/10 01:28:34;;;;;;;;;;;;;;;;;;4994445;28;7180;-83
2022/09/10 01:31:09;;;;;;;;;;;;;;;;;;5010692;28;8422;-84
2022/09/10 01:33:41;;;;;;;;;;;;;;;;;;5010741;28;7066;-84
2022/09/10 01:36:12;;;;;;;;;;;;;;;;;;5009708;28;7265;-82
2022/09/10 01:38:42;;;;;;;;;;;;;;;;;;5010960;28;7163;-81
2022/09/10 01:41:09;;;;;;;;;;;;;;;;;;5011006;28;8747;-81
2022/09/10 01:43:34;;;;;;;;;;;;;;;;;;5010582;28;8947;-83
2022/09/10 01:46:18;;;;;;;;;;;;;;;;;;5010916;28;7046;-83
2022/09/10 01:48:53;;;;;;;;;;;;;;;;;;5010460;28;7424;-83
2022/09/10 01:51:22;;;;;;;;;;;;;;;;;;4993992;28;7124;-82
2022/09/10 01:54:00;;;;;;;;;;;;;;;;;;4994393;28;7188;-83
2022/09/10 01:56:25;;;;;;;;;;;;;;;;;;4994164;28;8657;-83
2022/09/10 01:58:57;;;;;;;;;;;;;;;;;;4994350;28;8318;-82
2022/09/10 02:01:37;;;;;;;;;;;;;;;;;;5010906;28;8388;-83
2022/09/10 02:04:06;;;;;;;;;;;;;;;;;;5010927;28;8651;-83
2022/09/10 02:06:37;;;;;;;;;;;;;;;;;;5010743;28;7303;-82
2022/09/10 02:09:05;;;;;;;;;;;;;;;;;;5010679;28;7073;-83
2022/09/10 02:11:42;;;;;;;;;;;;;;;;;;5011595;28;7244;-82
2022/09/10 02:14:08;;;;;;;;;;;;;;;;;;5010631;28;8622;-83
2022/09/10 02:16:37;;;;;;;;;;;;;;;;;;5010447;28;7196;-82
2022/09/10 02:19:04;;;;;;;;;;;;;;;;;;5010250;28;9478;-82
2022/09/10 02:21:31;;;;;;;;;;;;;;;;;;5010084;28;9029;-82
2022/09/10 02:24:04;;;;;;;;;;;;;;;;;;5010194;28;7165;-83
2022/09/10 02:26:32;;;;;;;;;;;;;;;;;;5010423;28;7051;-83
2022/09/10 02:28:58;;;;;;;;;;;;;;;;;;5010596;28;7019;-83
2022/09/10 02:31:24;;;;;;;;;;;;;;;;;;5010717;28;8632;-84
2022/09/10 02:33:50;;;;;;;;;;;;;;;;;;5010544;28;9015;-82
2022/09/10 02:36:17;;;;;;;;;;;;;;;;;;5010270;28;8373;-83
2022/09/10 02:38:43;;;;;;;;;;;;;;;;;;5010243;28;8726;-82
2022/09/10 02:41:08;;;;;;;;;;;;;;;;;;5009979;28;7174;-82
2022/09/10 02:43:36;;;;;;;;;;;;;;;;;;5010498;28;8519;-83
2022/09/10 02:46:03;;;;;;;;;;;;;;;;;;5010274;28;7157;-82
2022/09/10 02:48:29;;;;;;;;;;;;;;;;;;5013350;28;7041;-81
2022/09/10 02:50:56;;;;;;;;;;;;;;;;;;5013272;28;7018;-82
2022/09/10 02:53:21;;;;;;;;;;;;;;;;;;5013998;28;7186;-81
2022/09/10 02:55:47;;;;;;;;;;;;;;;;;;5013060;28;8521;-82
2022/09/10 02:58:17;;;;;;;;;;;;;;;;;;5013918;28;7067;-82
2022/09/10 03:00:44;;;;;;;;;;;;;;;;;;5014001;28;7156;-82
2022/09/10 03:03:11;;;;;;;;;;;;;;;;;;5013250;28;8421;-82
2022/09/10 03:05:37;;;;;;;;;;;;;;;;;;5013062;28;7211;-81
2022/09/10 03:08:04;;;;;;;;;;;;;;;;;;5013366;28;7120;-83
2022/09/10 03:10:30;;;;;;;;;;;;;;;;;;5013050;28;7471;-83
2022/09/10 03:12:56;;;;;;;;;;;;;;;;;;5012925;28;7173;-81
2022/09/10 03:15:21;;;;;;;;;;;;;;;;;;5013291;28;7336;-83
2022/09/10 03:17:47;;;;;;;;;;;;;;;;;;5012815;28;7162;-82
2022/09/10 03:20:13;;;;;;;;;;;;;;;;;;5013768;28;8751;-82
2022/09/10 03:22:38;;;;;;;;;;;;;;;;;;5012910;28;7141;-82
2022/09/10 03:25:05;;;;;;;;;;;;;;;;;;5012838;28;8363;-82
2022/09/10 03:27:31;;;;;;;;;;;;;;;;;;5012786;28;8417;-83
2022/09/10 03:29:56;;;;;;;;;;;;;;;;;;5013440;28;8755;-82
2022/09/10 03:32:22;;;;;;;;;;;;;;;;;;5012635;28;7040;-82
2022/09/10 03:34:48;;;;;;;;;;;;;;;;;;5013185;28;7161;-83
2022/09/10 03:37:14;;;;;;;;;;;;;;;;;;5013536;28;7050;-83
2022/09/10 03:39:40;;;;;;;;;;;;;;;;;;5013087;28;7454;-82
2022/09/10 03:42:06;;;;;;;;;;;;;;;;;;5012940;28;8396;-82
2022/09/10 03:44:32;;;;;;;;;;;;;;;;;;5012832;28;7253;-83
2022/09/10 03:46:59;;;;;;;;;;;;;;;;;;5013748;28;7166;-82
2022/09/10 03:49:24;;;;;;;;;;;;;;;;;;5013069;28;8881;-85
2022/09/10 03:51:50;;;;;;;;;;;;;;;;;;5012485;28;8685;-84
2022/09/10 03:54:16;;;;;;;;;;;;;;;;;;5013331;28;9420;-85
2022/09/10 03:56:42;;;;;;;;;;;;;;;;;;5012209;28;7140;-84
2022/09/10 03:59:08;;;;;;;;;;;;;;;;;;5011470;28;8392;-84
2022/09/10 04:01:33;;;;;;;;;;;;;;;;;;5012155;28;8494;-84
2022/09/10 04:03:58;;;;;;;;;;;;;;;;;;5012266;28;7131;-86
2022/09/10 04:06:24;;;;;;;;;;;;;;;;;;5012750;28;7320;-84
2022/09/10 04:08:51;;;;;;;;;;;;;;;;;;5014067;28;8648;-82
2022/09/10 04:11:18;;;;;;;;;;;;;;;;;;5011979;28;7133;-83
2022/09/10 04:13:45;;;;;;;;;;;;;;;;;;5011538;28;7601;-79
2022/09/10 04:16:10;;;;;;;;;;;;;;;;;;5011504;28;7166;-81
2022/09/10 04:18:36;;;;;;;;;;;;;;;;;;5011995;28;8635;-82
2022/09/10 04:21:02;;;;;;;;;;;;;;;;;;5012254;28;7218;-82
2022/09/10 04:23:28;;;;;;;;;;;;;;;;;;5011642;28;8464;-82
2022/09/10 04:25:54;;;;;;;;;;;;;;;;;;5012032;28;8416;-82
2022/09/10 04:28:20;;;;;;;;;;;;;;;;;;5011586;28;7176;-81
2022/09/10 04:30:46;;;;;;;;;;;;;;;;;;5013665;28;7163;-82
2022/09/10 04:33:13;;;;;;;;;;;;;;;;;;5019520;28;7210;-83
2022/09/10 04:35:38;;;;;;;;;;;;;;;;;;5020286;28;7065;-83
2022/09/10 04:38:04;;;;;;;;;;;;;;;;;;5021182;28;8799;-83
2022/09/10 04:40:30;;;;;;;;;;;;;;;;;;5019272;28;7166;-82
2022/09/10 04:42:55;;;;;;;;;;;;;;;;;;5020544;28;9355;-82
2022/09/10 04:45:21;;;;;;;;;;;;;;;;;;5020571;28;9331;-83
2022/09/10 04:47:46;;;;;;;;;;;;;;;;;;5019371;28;8367;-82
2022/09/10 04:50:14;;;;;;;;;;;;;;;;;;5020652;28;8509;-83
2022/09/10 04:52:42;;;;;;;;;;;;;;;;;;5020319;28;8887;-82
2022/09/10 04:55:08;;;;;;;;;;;;;;;;;;5021323;28;8468;-81
2022/09/10 04:57:34;;;;;;;;;;;;;;;;;;5019498;28;7183;-83
2022/09/10 05:00:00;;;;;;;;;;;;;;;;;;5025255;28;8442;-83
2022/09/10 05:02:25;;;;;;;;;;;;;;;;;;5020527;28;8368;-83
2022/09/10 05:04:51;;;;;;;;;;;;;;;;;;5019864;28;7162;-83
2022/09/10 05:07:16;;;;;;;;;;;;;;;;;;5019550;28;7178;-81
2022/09/10 05:09:41;;;;;;;;;;;;;;;;;;5021570;28;7172;-83
2022/09/10 05:12:07;;;;;;;;;;;;;;;;;;5019883;28;8387;-83
2022/09/10 05:14:32;;;;;;;;;;;;;;;;;;5021440;28;8443;-82
2022/09/10 05:16:58;;;;;;;;;;;;;;;;;;5028366;28;7170;-83
2022/09/10 05:19:24;;;;;;;;;;;;;;;;;;5030579;28;7458;-83
2022/09/10 05:21:50;;;;;;;;;;;;;;;;;;5030734;28;7046;-83
2022/09/10 05:24:16;;;;;;;;;;;;;;;;;;5030537;28;8452;-83
2022/09/10 05:26:42;;;;;;;;;;;;;;;;;;5030364;28;8610;-82
2022/09/10 05:29:10;;;;;;;;;;;;;;;;;;5030578;28;8411;-83
2022/09/10 05:31:36;;;;;;;;;;;;;;;;;;5030349;28;7035;-83
2022/09/10 05:34:01;;;;;;;;;;;;;;;;;;5030514;28;8378;-83
2022/09/10 05:36:27;;;;;;;;;;;;;;;;;;5029972;28;7115;-83
2022/09/10 05:38:53;;;;;;;;;;;;;;;;;;5030528;28;8937;-83
2022/09/10 05:41:20;;;;;;;;;;;;;;;;;;5030267;28;7164;-83
2022/09/10 05:43:46;;;;;;;;;;;;;;;;;;5030102;28;8596;-82
2022/09/10 05:46:12;;;;;;;;;;;;;;;;;;5030381;28;6816;-83
2022/09/10 05:48:38;;;;;;;;;;;;;;;;;;5030286;28;8058;-82
2022/09/10 05:51:04;;;;;;;;;;;;;;;;;;5030680;28;7159;-83
2022/09/10 05:53:29;;;;;;;;;;;;;;;;;;5030689;28;8370;-81
2022/09/10 05:55:55;;;;;;;;;;;;;;;;;;5030248;28;8400;-83
2022/09/10 05:58:21;;;;;;;;;;;;;;;;;;5030579;28;8478;-86
2022/09/10 06:00:49;;;;;;;;;;;;;;;;;;5030323;28;7097;-82
2022/09/10 06:03:14;;;;;;;;;;;;;;;;;;5030549;28;8381;-83
2022/09/10 06:05:40;;;;;;;;;;;;;;;;;;5030507;28;8844;-82
2022/09/10 06:08:05;;;;;;;;;;;;;;;;;;5030043;28;7005;-83
2022/09/10 06:10:31;;;;;;;;;;;;;;;;;;5030410;28;8480;-84
2022/09/10 06:12:57;;;;;;;;;;;;;;;;;;5030627;28;7135;-83
2022/09/10 06:15:22;;;;;;;;;;;;;;;;;;5029815;28;7149;-81
2022/09/10 06:17:48;;;;;;;;;;;;;;;;;;5029700;28;8712;-82
2022/09/10 06:20:14;;;;;;;;;;;;;;;;;;5029810;28;8541;-81
2022/09/10 06:22:40;;;;;;;;;;;;;;;;;;5033310;28;8682;-82
2022/09/10 06:25:06;;;;;;;;;;;;;;;;;;5034389;28;7106;-83
2022/09/10 06:27:32;;;;;;;;;;;;;;;;;;5033910;28;8770;-83
2022/09/10 06:29:57;;;;;;;;;;;;;;;;;;5034182;28;8474;-83
2022/09/10 06:32:23;;;;;;;;;;;;;;;;;;5033553;28;7062;-82
2022/09/10 06:34:48;;;;;;;;;;;;;;;;;;5033474;28;7094;-81
2022/09/10 06:37:15;;;;;;;;;;;;;;;;;;5033984;28;8410;-81
2022/09/10 06:39:41;;;;;;;;;;;;;;;;;;5033711;28;7438;-83
2022/09/10 06:42:06;;;;;;;;;;;;;;;;;;5033974;28;7016;-84
2022/09/10 06:44:32;;;;;;;;;;;;;;;;;;5033333;28;7210;-84
2022/09/10 06:46:57;;;;;;;;;;;;;;;;;;5033927;28;8440;-83
2022/09/10 06:49:23;;;;;;;;;;;;;;;;;;5033198;28;8414;-83
2022/09/10 06:51:50;;;;;;;;;;;;;;;;;;5033444;28;7069;-83
2022/09/10 06:54:16;;;;;;;;;;;;;;;;;;5032681;28;8828;-84
2022/09/10 06:56:42;;;;;;;;;;;;;;;;;;5032464;28;8497;-81
2022/09/10 06:59:08;;;;;;;;;;;;;;;;;;5033829;28;7147;-81
2022/09/10 07:01:34;;;;;;;;;;;;;;;;;;5033410;28;8395;-82
2022/09/10 07:04:00;;;;;;;;;;;;;;;;;;5033090;28;8408;-83
2022/09/10 07:06:29;;;;;;;;;;;;;;;;;;5033087;28;7018;-83
2022/09/10 07:08:56;;;;;;;;;;;;;;;;;;5033077;28;7215;-82
2022/09/10 07:11:23;;;;;;;;;;;;;;;;;;5032989;28;6997;-84
2022/09/10 07:13:53;;;;;;;;;;;;;;;;;;5032858;28;8848;-84
2022/09/10 07:16:23;;;;;;;;;;;;;;;;;;5032977;28;8357;-85
2022/09/10 07:18:49;;;;;;;;;;;;;;;;;;5033943;28;8381;-83
2022/09/10 07:21:16;;;;;;;;;;;;;;;;;;5032278;28;8734;-82
2022/09/10 07:23:43;;;;;;;;;;;;;;;;;;5032381;28;8742;-84
2022/09/10 07:26:10;;;;;;;;;;;;;;;;;;5032501;28;7241;-82
2022/09/10 07:28:37;;;;;;;;;;;;;;;;;;5032420;28;8367;-83
2022/09/10 07:31:10;;;;;;;;;;;;;;;;;;5032496;28;8351;-83
2022/09/10 07:33:36;;;;;;;;;;;;;;;;;;5032295;28;7166;-82
2022/09/10 07:36:02;;;;;;;;;;;;;;;;;;5032403;28;7408;-82
2022/09/10 07:38:27;;;;;;;;;;;;;;;;;;5033169;28;8412;-82
2022/09/10 07:40:53;;;;;;;;;;;;;;;;;;5032547;28;7225;-82
2022/09/10 07:43:18;;;;;;;;;;;;;;;;;;5032205;28;6806;-81
2022/09/10 07:45:43;;;;;;;;;;;;;;;;;;5031632;28;7142;-80
2022/09/10 07:48:10;;;;;;;;;;;;;;;;;;5031093;28;8567;-81
2022/09/10 07:50:37;;;;;;;;;;;;;;;;;;5031532;28;8742;-82
2022/09/10 07:53:04;;;;;;;;;;;;;;;;;;5031788;28;7433;-84
2022/09/10 07:55:30;;;;;;;;;;;;;;;;;;5032526;28;8357;-83
2022/09/10 07:57:56;;;;;;;;;;;;;;;;;;5032568;28;8482;-80
2022/09/10 08:00:21;;;;;;;;;;;;;;;;;;5031868;28;7074;-81
2022/09/10 08:02:47;;;;;;;;;;;;;;;;;;5032395;28;8465;-83
2022/09/10 08:05:13;;;;;;;;;;;;;;;;;;5032063;28;7239;-84
2022/09/10 08:07:40;;;;;;;;;;;;;;;;;;5031725;28;8539;-83
2022/09/10 08:10:08;;;;;;;;;;;;;;;;;;5031606;28;7009;-82
2022/09/10 08:12:38;;;;;;;;;;;;;;;;;;5031927;28;7345;-84
2022/09/10 08:15:07;;;;;;;;;;;;;;;;;;5031632;28;8847;-82
2022/09/10 08:17:33;;;;;;;;;;;;;;;;;;5030097;28;8726;-83
2022/09/10 08:19:58;;;;;;;;;;;;;;;;;;5022776;28;7181;-82
2022/09/10 08:22:24;;;;;;;;;;;;;;;;;;5020282;28;8817;-82
2022/09/10 08:24:50;;;;;;;;;;;;;;;;;;5027684;28;8417;-82
2022/09/10 08:27:16;;;;;;;;;;;;;;;;;;5030394;28;8618;-82
2022/09/10 08:29:43;;;;;;;;;;;;;;;;;;5030605;28;8443;-81
2022/09/10 08:32:11;;;;;;;;;;;;;;;;;;5030470;28;7230;-82
2022/09/10 08:34:37;;;;;;;;;;;;;;;;;;5030637;28;7443;-81
2022/09/10 08:37:03;;;;;;;;;;;;;;;;;;5030244;28;8950;-82
2022/09/10 08:39:31;;;;;;;;;;;;;;;;;;5031225;28;6998;-81
2022/09/10 08:42:05;;;;;;;;;;;;;;;;;;5031052;28;9702;-81
2022/09/10 08:44:30;;;;;;;;;;;;;;;;;;5029885;28;8431;-81
2022/09/10 08:46:55;;;;;;;;;;;;;;;;;;5013651;28;7123;-81
2022/09/10 08:49:44;;;;;;;;;;;;;;;;;;5012989;28;8605;-81
2022/09/10 08:52:13;;;;;;;;;;;;;;;;;;5029241;28;8507;-82
2022/09/10 08:54:48;;;;;;;;;;;;;;;;;;5012521;28;8441;-83
2022/09/10 08:57:23;;;;;;;;;;;;;;;;;;5029553;28;8763;-82
2022/09/10 08:59:51;;;;;;;;;;;;;;;;;;5029767;28;8459;-83
2022/09/10 09:02:35;;;;;;;;;;;;;;;;;;5029752;28;8416;-81
2022/09/10 09:05:06;;;;;;;;;;;;;;;;;;5013026;28;7207;-81
2022/09/10 09:07:38;;;;;;;;;;;;;;;;;;5030636;28;8460;-82
2022/09/10 09:10:15;;;;;;;;;;;;;;;;;;5030115;28;7144;-82
2022/09/10 09:12:59;;;;;;;;;;;;;;;;;;5029711;28;8759;-82
2022/09/10 09:15:25;;;;;;;;;;;;;;;;;;5029147;28;8860;-82
2022/09/10 09:17:58;;;;;;;;;;;;;;;;;;5012931;28;8440;-82
2022/09/10 09:20:48;;;;;;;;;;;;;;;;;;5013307;28;7063;-82
2022/09/10 09:24:56;;;;;;;;;;;;;;;;;;5071347;28;6981;-64
2022/09/10 09:27:26;;;;;;;;;;;;;;;;;;5051293;28;7185;-64
2022/09/10 09:29:51;;;;;;;;;;;;;;;;;;5051855;28;7214;-64
2022/09/10 09:32:20;;;;;;;;;;;;;;;;;;5052571;28;6939;-64
2022/09/10 09:41:25;;;;;;;;;;;;;;;;;;5051713;28;6909;-64
2022/09/10 09:46:55;;;;;;;;;;;;;;;;;;5051575;28;6961;-64
2022/09/10 09:49:22;;;;;;;;;;;;;;;;;;5051887;28;7063;-64
2022/09/10 09:51:58;;;;;;;;;;;;;;;;;;5052224;28;7146;-64
2022/09/10 09:54:27;;;;;;;;;;;;;;;;;;5051837;28;7070;-64
2022/09/10 09:56:57;;;;;;;;;;;;;;;;;;5051500;28;7060;-64
2022/09/10 10:02:29;;;;;;;;;;;;;;;;;;5051037;28;6948;-63
2022/09/10 10:07:57;;;;;;;;;;;;;;;;;;5051321;28;7058;-63
2022/09/10 10:13:36;;;;;;;;;;;;;;;;;;5050829;28;7028;-63
2022/09/10 10:16:25;;;;;;;;;;;;;;;;;;5050658;28;7088;-64
2022/09/10 10:18:51;;;;;;;;;;;;;;;;;;5050955;28;7167;-64
2022/09/10 10:21:31;;;;;;;;;;;;;;;;;;5051105;28;7413;-64
2022/09/10 10:23:56;;;;;;;;;;;;;;;;;;5062777;28;6967;-64
2022/09/10 10:26:42;;;;;;;;;;;;;;;;;;5070445;28;7312;-63
2022/09/10 10:29:19;;;;;;;;;;;;;;;;;;5070830;28;7403;-63
2022/09/10 10:31:47;;;;;;;;;;;;;;;;;;5071429;28;7270;-63
2022/09/10 10:37:49;;;;;;;;;;;;;;;;;;5057103;28;6695;-63
2022/09/10 10:40:42;;;;;;;;;;;;;;;;;;5057304;28;7260;-63
2022/09/10 10:46:21;;;;;;;;;;;;;;;;;;5057044;28;7115;-63
2022/09/10 10:49:02;;;;;;;;;;;;;;;;;;5038994;28;8532;-63
2022/09/10 10:51:42;;;;;;;;;;;;;;;;;;5057111;28;7415;-63
2022/09/10 10:54:27;;;;;;;;;;;;;;;;;;5057330;28;7211;-63
2022/09/10 10:57:02;;;;;;;;;;;;;;;;;;5056996;28;7019;-63
2022/09/10 10:59:49;;;;;;;;;;;;;;;;;;5056612;28;7194;-63
2022/09/10 11:02:21;;;;;;;;;;;;;;;;;;5056430;28;7230;-63
2022/09/10 11:04:52;;;;;;;;;;;;;;;;;;5056870;28;7190;-63
2022/09/10 11:07:39;;;;;;;;;;;;;;;;;;5056881;28;7046;-63
2022/09/10 11:10:13;;;;;;;;;;;;;;;;;;5056702;28;7174;-63
2022/09/10 11:12:46;;;;;;;;;;;;;;;;;;5056803;28;6977;-63
2022/09/10 11:15:18;;;;;;;;;;;;;;;;;;5057580;28;7159;-63
2022/09/10 11:17:50;;;;;;;;;;;;;;;;;;5056546;28;7221;-63
2022/09/10 11:20:22;;;;;;;;;;;;;;;;;;5056236;28;7300;-63
2022/09/10 11:26:11;;;;;;;;;;;;;;;;;;5056295;28;6694;-63
2022/09/10 11:28:46;;;;;;;;;;;;;;;;;;5056670;28;7208;-63
2022/09/10 11:31:20;;;;;;;;;;;;;;;;;;5056502;28;6972;-64
2022/09/10 11:34:01;;;;;;;;;;;;;;;;;;5056592;28;7264;-64
2022/09/10 11:39:39;;;;;;;;;;;;;;;;;;5055740;28;6986;-63
2022/09/10 11:42:25;;;;;;;;;;;;;;;;;;5057024;28;7115;-63
2022/09/10 11:44:51;;;;;;;;;;;;;;;;;;5054697;28;6853;-63
2022/09/10 11:47:30;;;;;;;;;;;;;;;;;;5055845;28;7144;-63
2022/09/10 11:50:00;;;;;;;;;;;;;;;;;;5056029;28;7370;-63
2022/09/10 11:52:29;;;;;;;;;;;;;;;;;;5038942;28;7192;-63
2022/09/10 11:54:57;;;;;;;;;;;;;;;;;;5055599;28;7140;-63
2022/09/10 11:57:22;;;;;;;;;;;;;;;;;;5055856;28;7267;-63
2022/09/10 11:59:54;;;;;;;;;;;;;;;;;;5055633;28;7356;-63
2022/09/10 12:02:31;;;;;;;;;;;;;;;;;;5055909;28;6954;-63
2022/09/10 12:05:15;;;;;;;;;;;;;;;;;;5055391;28;6819;-63
2022/09/10 12:08:04;;;;;;;;;;;;;;;;;;5037482;28;7172;-63
2022/09/10 12:10:48;;;;;;;;;;;;;;;;;;5055088;28;6944;-63
2022/09/10 12:13:15;;;;;;;;;;;;;;;;;;5036803;28;7177;-63
2022/09/10 12:15:50;;;;;;;;;;;;;;;;;;5071497;23;7123;-84
2022/09/10 12:18:20;;;;;;;;;;;;;;;;;;5054256;28;8465;-84
2022/09/10 12:20:50;;;;;;;;;;;;;;;;;;5054301;28;9098;-86
2022/09/10 12:23:23;;;;;;;;;;;;;;;;;;5052836;28;7074;-85
2022/09/10 12:26:00;;;;;;;;;;;;;;;;;;5054107;28;8400;-86
2022/09/10 12:28:41;;;;;;;;;;;;;;;;;;5054817;28;8523;-85
2022/09/10 12:31:08;;;;;;;;;;;;;;;;;;5055899;28;8464;-84
2022/09/10 12:33:56;;;;;;;;;;;;;;;;;;5054009;28;7033;-82
2022/09/10 12:36:24;;;;;;;;;;;;;;;;;;5066328;28;6987;-84
2022/09/10 12:39:15;;;;;;;;;;;;;;;;;;5055052;28;8688;-84
2022/09/10 12:41:40;;;;;;;;;;;;;;;;;;5053785;28;8857;-84
2022/09/10 12:44:24;;;;;;;;;;;;;;;;;;5053875;28;8588;-85
2022/09/10 12:47:12;;;;;;;;;;;;;;;;;;5053912;28;8640;-85
2022/09/10 12:49:48;;;;;;;;;;;;;;;;;;5053409;28;8438;-85
2022/09/10 12:52:33;;;;;;;;;;;;;;;;;;5053752;28;7065;-84
2022/09/10 12:54:59;;;;;;;;;;;;;;;;;;5053384;28;8011;-86
2022/09/10 12:57:40;;;;;;;;;;;;;;;;;;5053438;28;9163;-85
2022/09/10 13:00:12;;;;;;;;;;;;;;;;;;5053628;28;8427;-84
2022/09/10 13:02:45;;;;;;;;;;;;;;;;;;5053633;28;9377;-85
2022/09/10 13:05:17;;;;;;;;;;;;;;;;;;5053920;28;8336;-85
2022/09/10 13:07:44;;;;;;;;;;;;;;;;;;5053372;28;8428;-85
2022/09/10 13:10:12;;;;;;;;;;;;;;;;;;5053381;28;7187;-85
2022/09/10 13:12:41;;;;;;;;;;;;;;;;;;5054017;28;8902;-85
2022/09/10 13:15:16;;;;;;;;;;;;;;;;;;5053352;28;8449;-85
2022/09/10 13:17:49;;;;;;;;;;;;;;;;;;5054418;28;7363;-85
2022/09/10 13:20:18;;;;;;;;;;;;;;;;;;5053676;28;7180;-84
2022/09/10 13:22:55;;;;;;;;;;;;;;;;;;5053024;28;8996;-86
2022/09/10 13:25:35;;;;;;;;;;;;;;;;;;5053179;28;8426;-85
2022/09/10 13:28:21;;;;;;;;;;;;;;;;;;5053306;28;7446;-85
2022/09/10 13:30:50;;;;;;;;;;;;;;;;;;5013183;28;8502;-85
2022/09/10 13:33:17;;;;;;;;;;;;;;;;;;5053166;28;8873;-85
2022/09/10 13:35:54;;;;;;;;;;;;;;;;;;5053201;28;8464;-85
2022/09/10 13:38:23;;;;;;;;;;;;;;;;;;5053077;28;8441;-85
2022/09/10 13:40:51;;;;;;;;;;;;;;;;;;5053174;28;8578;-85
2022/09/10 13:43:49;;;;;;;;;;;;;;;;;;5052996;28;8399;-85
2022/09/10 13:46:27;;;;;;;;;;;;;;;;;;5009611;28;8425;-85
2022/09/10 13:49:15;;;;;;;;;;;;;;;;;;5053127;28;8360;-85
2022/09/10 13:51:41;;;;;;;;;;;;;;;;;;5052889;28;8310;-87
2022/09/10 13:54:18;;;;;;;;;;;;;;;;;;5053374;28;7336;-86
2022/09/10 13:56:46;;;;;;;;;;;;;;;;;;5053423;28;8530;-85
2022/09/10 13:59:25;;;;;;;;;;;;;;;;;;5053407;28;6814;-85
2022/09/10 14:01:52;;;;;;;;;;;;;;;;;;5052870;28;9119;-85
2022/09/10 14:04:21;;;;;;;;;;;;;;;;;;5053127;28;8616;-86
2022/09/10 14:06:47;;;;;;;;;;;;;;;;;;5053060;28;7262;-86
2022/09/10 14:09:13;;;;;;;;;;;;;;;;;;5052838;28;6812;-85
2022/09/10 14:11:41;;;;;;;;;;;;;;;;;;5056776;28;8396;-86
2022/09/10 14:14:11;;;;;;;;;;;;;;;;;;5056548;28;9338;-85
2022/09/10 14:16:48;;;;;;;;;;;;;;;;;;5056499;28;8451;-85
2022/09/10 14:19:18;;;;;;;;;;;;;;;;;;5056807;28;8780;-86
2022/09/10 14:21:49;;;;;;;;;;;;;;;;;;5057837;28;6926;-85
2022/09/10 14:24:43;;;;;;;;;;;;;;;;;;5055242;28;8462;-84
2022/09/10 14:27:22;;;;;;;;;;;;;;;;;;5037734;28;8503;-83
2022/09/10 14:29:49;;;;;;;;;;;;;;;;;;5056401;28;7286;-83
2022/09/10 14:32:15;;;;;;;;;;;;;;;;;;5055620;28;9096;-84
2022/09/10 14:34:41;;;;;;;;;;;;;;;;;;5056134;28;8654;-84
2022/09/10 14:37:24;;;;;;;;;;;;;;;;;;5056042;28;7622;-83
2022/09/10 14:39:50;;;;;;;;;;;;;;;;;;5055919;28;8726;-84
2022/09/10 14:42:30;;;;;;;;;;;;;;;;;;5057463;28;7049;-83
2022/09/10 14:44:56;;;;;;;;;;;;;;;;;;5055972;28;8396;-84
2022/09/10 14:47:41;;;;;;;;;;;;;;;;;;5056212;28;8442;-83
2022/09/10 14:50:26;;;;;;;;;;;;;;;;;;5055478;28;7037;-84
2022/09/10 14:52:52;;;;;;;;;;;;;;;;;;5055948;28;9308;-84
2022/09/10 14:55:19;;;;;;;;;;;;;;;;;;5056105;28;8436;-85
2022/09/10 14:57:44;;;;;;;;;;;;;;;;;;5055662;28;8468;-85
2022/09/10 15:00:13;;;;;;;;;;;;;;;;;;5055645;28;7166;-85
2022/09/10 15:02:40;;;;;;;;;;;;;;;;;;5056457;28;7161;-86
2022/09/10 15:05:13;;;;;;;;;;;;;;;;;;5055897;28;7268;-85
2022/09/10 15:07:38;;;;;;;;;;;;;;;;;;5055659;28;7068;-84
2022/09/10 15:10:04;;;;;;;;;;;;;;;;;;5055500;28;7047;-86
2022/09/10 15:12:31;;;;;;;;;;;;;;;;;;5055418;28;8376;-83
2022/09/10 15:14:57;;;;;;;;;;;;;;;;;;5055352;28;8455;-83
2022/09/10 15:17:23;;;;;;;;;;;;;;;;;;5055024;28;8475;-83
2022/09/10 15:19:48;;;;;;;;;;;;;;;;;;5055722;28;7239;-86
2022/09/10 15:22:25;;;;;;;;;;;;;;;;;;5055132;28;7200;-86
2022/09/10 15:24:52;;;;;;;;;;;;;;;;;;5055122;28;8343;-85
2022/09/10 15:27:17;;;;;;;;;;;;;;;;;;5054971;28;8594;-86
2022/09/10 15:29:43;;;;;;;;;;;;;;;;;;5054908;28;8477;-86
2022/09/10 15:32:09;;;;;;;;;;;;;;;;;;5055628;28;7053;-85
2022/09/10 15:34:36;;;;;;;;;;;;;;;;;;5055170;28;8918;-88
2022/09/10 15:37:02;;;;;;;;;;;;;;;;;;5054954;28;9117;-88
2022/09/10 15:39:27;;;;;;;;;;;;;;;;;;5055223;28;8462;-88
2022/09/10 15:41:53;;;;;;;;;;;;;;;;;;5055155;28;8422;-88
2022/09/10 15:44:19;;;;;;;;;;;;;;;;;;5054733;28;8775;-88
2022/09/10 15:46:45;;;;;;;;;;;;;;;;;;5057231;28;8425;-88
2022/09/10 15:49:11;;;;;;;;;;;;;;;;;;5057132;28;7088;-85
2022/09/10 15:51:37;;;;;;;;;;;;;;;;;;5058000;28;8515;-88
2022/09/10 15:54:02;;;;;;;;;;;;;;;;;;5059071;28;8399;-87
2022/09/10 15:56:29;;;;;;;;;;;;;;;;;;5057609;28;8415;-85
2022/09/10 15:58:56;;;;;;;;;;;;;;;;;;5060374;28;8656;-85
2022/09/10 16:01:23;;;;;;;;;;;;;;;;;;5056864;28;8462;-89
2022/09/10 16:04:03;;;;;;;;;;;;;;;;;;5055574;28;7034;-88
2022/09/10 16:06:33;;;;;;;;;;;;;;;;;;5056137;28;8316;-90
2022/09/10 16:09:00;;;;;;;;;;;;;;;;;;5054894;28;8426;-86
2022/09/10 16:11:31;;;;;;;;;;;;;;;;;;5054839;28;8511;-87
2022/09/10 16:13:58;;;;;;;;;;;;;;;;;;5055045;28;7540;-87
2022/09/10 16:16:27;;;;;;;;;;;;;;;;;;5054254;28;6905;-87
2022/09/10 16:18:53;;;;;;;;;;;;;;;;;;5054413;28;7208;-86
2022/09/10 16:21:22;;;;;;;;;;;;;;;;;;5055299;28;7040;-83
2022/09/10 16:23:48;;;;;;;;;;;;;;;;;;5053954;28;8441;-86
2022/09/10 16:26:15;;;;;;;;;;;;;;;;;;5054288;28;8790;-86
2022/09/10 16:28:47;;;;;;;;;;;;;;;;;;5053960;28;7449;-83
2022/09/10 16:31:14;;;;;;;;;;;;;;;;;;5054241;28;8402;-83
2022/09/10 16:33:41;;;;;;;;;;;;;;;;;;5053675;28;9161;-82
2022/09/10 16:36:07;;;;;;;;;;;;;;;;;;5054557;28;8422;-83
2022/09/10 16:38:33;;;;;;;;;;;;;;;;;;5053766;28;7035;-83
2022/09/10 16:41:00;;;;;;;;;;;;;;;;;;5054077;28;7028;-84
2022/09/10 16:43:25;;;;;;;;;;;;;;;;;;5053513;28;8424;-83
2022/09/10 16:45:52;;;;;;;;;;;;;;;;;;5053912;28;8337;-83
2022/09/10 16:48:17;;;;;;;;;;;;;;;;;;5053361;28;9127;-85
2022/09/10 16:50:43;;;;;;;;;;;;;;;;;;5053273;28;8631;-85
2022/09/10 16:53:08;;;;;;;;;;;;;;;;;;5054022;28;7395;-83
2022/09/10 16:55:34;;;;;;;;;;;;;;;;;;5054632;28;8391;-87
2022/09/10 16:57:59;;;;;;;;;;;;;;;;;;5054450;28;8388;-88
2022/09/10 17:00:25;;;;;;;;;;;;;;;;;;5053451;28;8405;-89
2022/09/10 17:02:51;;;;;;;;;;;;;;;;;;5053433;28;8550;-87
2022/09/10 17:05:17;;;;;;;;;;;;;;;;;;5053401;28;8839;-86
2022/09/10 17:07:42;;;;;;;;;;;;;;;;;;5053325;28;7176;-86
2022/09/10 17:10:08;;;;;;;;;;;;;;;;;;5053319;28;8482;-87
2022/09/10 17:12:34;;;;;;;;;;;;;;;;;;5053434;28;8388;-86
2022/09/10 17:14:59;;;;;;;;;;;;;;;;;;5053385;28;7038;-88
2022/09/10 17:17:26;;;;;;;;;;;;;;;;;;5053079;28;8760;-85
2022/09/10 17:19:51;;;;;;;;;;;;;;;;;;5053138;28;8435;-85
2022/09/10 17:22:17;;;;;;;;;;;;;;;;;;5053352;28;8533;-86
2022/09/10 17:24:42;;;;;;;;;;;;;;;;;;5053165;28;7145;-86
2022/09/10 17:27:07;;;;;;;;;;;;;;;;;;5053241;28;7039;-86
2022/09/10 17:29:34;;;;;;;;;;;;;;;;;;5053663;28;7029;-86
2022/09/10 17:32:00;;;;;;;;;;;;;;;;;;5053411;28;8408;-86
2022/09/10 17:34:26;;;;;;;;;;;;;;;;;;5053243;28;8787;-87
2022/09/10 17:36:52;;;;;;;;;;;;;;;;;;5069660;28;7342;-87
2022/09/10 17:39:18;;;;;;;;;;;;;;;;;;5053346;28;8775;-87
2022/09/10 17:41:44;;;;;;;;;;;;;;;;;;5053014;28;8366;-87
2022/09/10 17:44:11;;;;;;;;;;;;;;;;;;5053064;28;8242;-87
2022/09/10 17:46:37;;;;;;;;;;;;;;;;;;5056865;28;7125;-87
2022/09/10 17:49:03;;;;;;;;;;;;;;;;;;5057721;28;7046;-86
2022/09/10 17:51:30;;;;;;;;;;;;;;;;;;5057101;28;8497;-85